sensor_id;sensor_type;location;lat;lon;timestamp;temperature;humidity
75648;DHT22;66269;51.466;7.260;2023-01-24T00:00:29;20.00;40.30
75648;DHT22;66269;51.466;7.260;2023-01-24T00:02:55;20.10;40.30
75648;DHT22;66269;51.466;7.260;2023-01-24T00:05:20;20.00;40.10
75648;DHT22;66269;51.466;7.260;2023-01-24T00:07:46;20.00;40.30
75648;DHT22;66269;51.466;7.260;2023-01-24T00:10:12;20.00;40.20
75648;DHT22;66269;51.466;7.260;2023-01-24T00:12:37;20.10;40.20
75648;DHT22;66269;51.466;7.260;2023-01-24T00:15:03;20.00;40.00
75648;DHT22;66269;51.466;7.260;2023-01-24T00:17:29;20.00;40.20
75648;DHT22;66269;51.466;7.260;2023-01-24T00:19:55;20.10;40.00
75648;DHT22;66269;51.466;7.260;2023-01-24T00:22:20;20.00;40.30
75648;DHT22;66269;51.466;7.260;2023-01-24T00:24:46;20.10;40.30
75648;DHT22;66269;51.466;7.260;2023-01-24T00:27:12;20.10;40.20
75648;DHT22;66269;51.466;7.260;2023-01-24T00:29:37;20.10;40.10
75648;DHT22;66269;51.466;7.260;2023-01-24T00:32:03;20.10;40.00
75648;DHT22;66269;51.466;7.260;2023-01-24T00:34:28;20.10;40.20
75648;DHT22;66269;51.466;7.260;2023-01-24T00:36:54;20.10;40.20
75648;DHT22;66269;51.466;7.260;2023-01-24T00:39:19;20.00;40.00
75648;DHT22;66269;51.466;7.260;2023-01-24T00:41:45;20.10;40.10
75648;DHT22;66269;51.466;7.260;2023-01-24T00:44:11;20.00;39.90
75648;DHT22;66269;51.466;7.260;2023-01-24T00:46:37;20.10;40.30
75648;DHT22;66269;51.466;7.260;2023-01-24T00:49:02;20.00;40.00
75648;DHT22;66269;51.466;7.260;2023-01-24T00:51:28;20.10;40.20
75648;DHT22;66269;51.466;7.260;2023-01-24T00:53:53;20.00;39.90
75648;DHT22;66269;51.466;7.260;2023-01-24T00:56:19;20.10;40.00
75648;DHT22;66269;51.466;7.260;2023-01-24T00:58:44;20.10;40.10
75648;DHT22;66269;51.466;7.260;2023-01-24T01:01:10;20.00;40.00
75648;DHT22;66269;51.466;7.260;2023-01-24T01:03:35;20.10;40.20
75648;DHT22;66269;51.466;7.260;2023-01-24T01:06:07;20.10;40.00
75648;DHT22;66269;51.466;7.260;2023-01-24T01:08:33;20.00;40.20
75648;DHT22;66269;51.466;7.260;2023-01-24T01:10:59;20.00;40.20
75648;DHT22;66269;51.466;7.260;2023-01-24T01:13:26;20.00;40.00
75648;DHT22;66269;51.466;7.260;2023-01-24T01:15:51;20.00;40.10
75648;DHT22;66269;51.466;7.260;2023-01-24T01:18:17;20.00;40.00
75648;DHT22;66269;51.466;7.260;2023-01-24T01:20:49;20.00;40.20
75648;DHT22;66269;51.466;7.260;2023-01-24T01:23:16;20.00;39.90
75648;DHT22;66269;51.466;7.260;2023-01-24T01:25:41;20.00;39.90
75648;DHT22;66269;51.466;7.260;2023-01-24T01:28:07;20.00;40.10
75648;DHT22;66269;51.466;7.260;2023-01-24T01:30:32;20.10;39.90
75648;DHT22;66269;51.466;7.260;2023-01-24T01:32:58;20.10;39.70
75648;DHT22;66269;51.466;7.260;2023-01-24T01:35:23;20.00;40.30
75648;DHT22;66269;51.466;7.260;2023-01-24T01:37:49;20.00;40.10
75648;DHT22;66269;51.466;7.260;2023-01-24T01:40:16;20.00;40.10
75648;DHT22;66269;51.466;7.260;2023-01-24T01:42:50;20.10;39.80
75648;DHT22;66269;51.466;7.260;2023-01-24T01:48:02;20.10;40.00
75648;DHT22;66269;51.466;7.260;2023-01-24T01:50:36;20.00;40.00
75648;DHT22;66269;51.466;7.260;2023-01-24T01:53:04;20.10;40.10
75648;DHT22;66269;51.466;7.260;2023-01-24T01:55:34;20.00;39.60
75648;DHT22;66269;51.466;7.260;2023-01-24T01:58:01;20.00;40.20
75648;DHT22;66269;51.466;7.260;2023-01-24T02:00:27;20.00;40.00
75648;DHT22;66269;51.466;7.260;2023-01-24T02:03:08;20.00;40.10
75648;DHT22;66269;51.466;7.260;2023-01-24T02:05:53;20.00;39.80
75648;DHT22;66269;51.466;7.260;2023-01-24T02:08:21;20.00;39.90
75648;DHT22;66269;51.466;7.260;2023-01-24T02:10:48;20.00;40.00
75648;DHT22;66269;51.466;7.260;2023-01-24T02:13:35;20.10;40.10
75648;DHT22;66269;51.466;7.260;2023-01-24T02:16:01;20.10;39.70
75648;DHT22;66269;51.466;7.260;2023-01-24T02:18:35;20.00;39.70
75648;DHT22;66269;51.466;7.260;2023-01-24T02:21:03;20.00;39.90
75648;DHT22;66269;51.466;7.260;2023-01-24T02:28:49;20.00;40.10
75648;DHT22;66269;51.466;7.260;2023-01-24T02:31:15;20.00;40.20
75648;DHT22;66269;51.466;7.260;2023-01-24T02:33:41;20.00;40.10
75648;DHT22;66269;51.466;7.260;2023-01-24T02:39:21;20.00;39.80
75648;DHT22;66269;51.466;7.260;2023-01-24T02:41:49;20.00;39.80
75648;DHT22;66269;51.466;7.260;2023-01-24T02:44:35;20.00;39.90
75648;DHT22;66269;51.466;7.260;2023-01-24T02:47:03;20.00;39.90
75648;DHT22;66269;51.466;7.260;2023-01-24T02:49:29;20.00;39.80
75648;DHT22;66269;51.466;7.260;2023-01-24T02:51:54;20.00;39.70
75648;DHT22;66269;51.466;7.260;2023-01-24T02:54:38;20.00;40.10
75648;DHT22;66269;51.466;7.260;2023-01-24T02:57:05;20.00;39.90
75648;DHT22;66269;51.466;7.260;2023-01-24T02:59:49;20.00;39.80
75648;DHT22;66269;51.466;7.260;2023-01-24T03:02:14;20.00;39.70
75648;DHT22;66269;51.466;7.260;2023-01-24T03:04:40;20.00;39.80
75648;DHT22;66269;51.466;7.260;2023-01-24T03:07:05;20.00;39.80
75648;DHT22;66269;51.466;7.260;2023-01-24T03:09:31;20.00;39.70
75648;DHT22;66269;51.466;7.260;2023-01-24T03:12:00;20.00;39.70
75648;DHT22;66269;51.466;7.260;2023-01-24T03:14:45;20.00;40.00
75648;DHT22;66269;51.466;7.260;2023-01-24T03:17:29;20.00;39.80
75648;DHT22;66269;51.466;7.260;2023-01-24T03:20:14;20.00;39.60
75648;DHT22;66269;51.466;7.260;2023-01-24T03:22:58;20.00;39.60
75648;DHT22;66269;51.466;7.260;2023-01-24T03:25:42;20.00;39.70
75648;DHT22;66269;51.466;7.260;2023-01-24T03:28:26;20.00;39.60
75648;DHT22;66269;51.466;7.260;2023-01-24T03:31:10;20.00;39.70
75648;DHT22;66269;51.466;7.260;2023-01-24T03:33:54;19.90;39.60
75648;DHT22;66269;51.466;7.260;2023-01-24T03:36:38;20.00;39.90
75648;DHT22;66269;51.466;7.260;2023-01-24T03:39:04;20.00;39.60
75648;DHT22;66269;51.466;7.260;2023-01-24T03:41:48;20.00;39.70
75648;DHT22;66269;51.466;7.260;2023-01-24T03:44:13;20.00;39.70
75648;DHT22;66269;51.466;7.260;2023-01-24T03:46:39;20.10;39.40
75648;DHT22;66269;51.466;7.260;2023-01-24T03:49:06;20.10;39.60
75648;DHT22;66269;51.466;7.260;2023-01-24T03:51:31;20.00;39.70
75648;DHT22;66269;51.466;7.260;2023-01-24T03:54:15;20.10;39.60
75648;DHT22;66269;51.466;7.260;2023-01-24T03:56:41;20.10;39.90
75648;DHT22;66269;51.466;7.260;2023-01-24T03:59:06;20.10;39.60
75648;DHT22;66269;51.466;7.260;2023-01-24T04:01:32;20.00;39.50
75648;DHT22;66269;51.466;7.260;2023-01-24T04:03:57;20.10;39.50
75648;DHT22;66269;51.466;7.260;2023-01-24T04:06:23;20.00;39.70
75648;DHT22;66269;51.466;7.260;2023-01-24T04:08:49;20.00;39.70
75648;DHT22;66269;51.466;7.260;2023-01-24T04:11:16;20.00;39.40
75648;DHT22;66269;51.466;7.260;2023-01-24T04:13:41;20.10;39.50
75648;DHT22;66269;51.466;7.260;2023-01-24T04:16:08;20.00;39.50
75648;DHT22;66269;51.466;7.260;2023-01-24T04:18:34;20.00;39.60
75648;DHT22;66269;51.466;7.260;2023-01-24T04:21:02;20.00;39.60
75648;DHT22;66269;51.466;7.260;2023-01-24T04:23:29;19.90;39.50
75648;DHT22;66269;51.466;7.260;2023-01-24T04:25:54;20.00;39.50
75648;DHT22;66269;51.466;7.260;2023-01-24T04:28:23;20.00;39.60
75648;DHT22;66269;51.466;7.260;2023-01-24T04:30:55;20.00;39.60
75648;DHT22;66269;51.466;7.260;2023-01-24T04:33:20;20.00;39.50
75648;DHT22;66269;51.466;7.260;2023-01-24T04:35:46;20.00;39.50
75648;DHT22;66269;51.466;7.260;2023-01-24T04:38:11;20.00;39.40
75648;DHT22;66269;51.466;7.260;2023-01-24T04:40:37;20.00;39.60
75648;DHT22;66269;51.466;7.260;2023-01-24T04:43:03;20.00;39.20
75648;DHT22;66269;51.466;7.260;2023-01-24T04:45:29;20.00;39.60
75648;DHT22;66269;51.466;7.260;2023-01-24T04:47:54;20.00;39.50
75648;DHT22;66269;51.466;7.260;2023-01-24T04:50:20;20.00;39.40
75648;DHT22;66269;51.466;7.260;2023-01-24T04:52:45;20.10;39.40
75648;DHT22;66269;51.466;7.260;2023-01-24T04:55:11;20.00;39.50
75648;DHT22;66269;51.466;7.260;2023-01-24T04:57:36;20.10;39.20
75648;DHT22;66269;51.466;7.260;2023-01-24T05:00:03;20.00;39.30
75648;DHT22;66269;51.466;7.260;2023-01-24T05:02:29;20.00;39.60
75648;DHT22;66269;51.466;7.260;2023-01-24T05:04:55;20.10;39.60
75648;DHT22;66269;51.466;7.260;2023-01-24T05:07:21;20.10;39.50
75648;DHT22;66269;51.466;7.260;2023-01-24T05:09:46;20.10;39.30
75648;DHT22;66269;51.466;7.260;2023-01-24T05:12:12;20.00;39.40
75648;DHT22;66269;51.466;7.260;2023-01-24T05:14:37;20.00;39.40
75648;DHT22;66269;51.466;7.260;2023-01-24T05:17:03;20.10;39.50
75648;DHT22;66269;51.466;7.260;2023-01-24T05:19:28;20.00;39.40
75648;DHT22;66269;51.466;7.260;2023-01-24T05:21:54;20.10;39.80
75648;DHT22;66269;51.466;7.260;2023-01-24T05:24:19;20.00;39.50
75648;DHT22;66269;51.466;7.260;2023-01-24T05:26:45;20.00;39.40
75648;DHT22;66269;51.466;7.260;2023-01-24T05:29:11;20.00;39.50
75648;DHT22;66269;51.466;7.260;2023-01-24T05:31:36;20.10;39.50
75648;DHT22;66269;51.466;7.260;2023-01-24T05:34:02;20.00;39.50
75648;DHT22;66269;51.466;7.260;2023-01-24T05:36:30;20.10;39.40
75648;DHT22;66269;51.466;7.260;2023-01-24T05:38:56;20.00;39.50
75648;DHT22;66269;51.466;7.260;2023-01-24T05:41:21;20.00;39.20
75648;DHT22;66269;51.466;7.260;2023-01-24T05:43:48;20.00;39.20
75648;DHT22;66269;51.466;7.260;2023-01-24T05:46:19;20.00;39.10
75648;DHT22;66269;51.466;7.260;2023-01-24T05:48:45;20.10;39.20
75648;DHT22;66269;51.466;7.260;2023-01-24T05:51:13;20.00;39.50
75648;DHT22;66269;51.466;7.260;2023-01-24T05:53:41;20.00;39.40
75648;DHT22;66269;51.466;7.260;2023-01-24T05:56:10;20.10;39.40
75648;DHT22;66269;51.466;7.260;2023-01-24T05:58:38;20.00;39.30
75648;DHT22;66269;51.466;7.260;2023-01-24T06:03:38;20.10;39.30
75648;DHT22;66269;51.466;7.260;2023-01-24T06:06:05;20.00;39.50
75648;DHT22;66269;51.466;7.260;2023-01-24T06:08:30;20.00;39.30
75648;DHT22;66269;51.466;7.260;2023-01-24T06:11:05;20.00;39.50
75648;DHT22;66269;51.466;7.260;2023-01-24T06:13:31;20.10;39.70
75648;DHT22;66269;51.466;7.260;2023-01-24T06:16:02;20.00;39.50
75648;DHT22;66269;51.466;7.260;2023-01-24T06:18:27;20.10;39.70
75648;DHT22;66269;51.466;7.260;2023-01-24T06:20:53;20.00;39.50
75648;DHT22;66269;51.466;7.260;2023-01-24T06:23:25;20.10;39.30
75648;DHT22;66269;51.466;7.260;2023-01-24T06:25:51;20.00;39.30
75648;DHT22;66269;51.466;7.260;2023-01-24T06:28:16;20.10;39.20
75648;DHT22;66269;51.466;7.260;2023-01-24T06:37:00;20.10;39.40
75648;DHT22;66269;51.466;7.260;2023-01-24T06:39:28;20.10;39.20
75648;DHT22;66269;51.466;7.260;2023-01-24T06:41:54;20.10;39.30
75648;DHT22;66269;51.466;7.260;2023-01-24T06:44:20;20.10;39.20
75648;DHT22;66269;51.466;7.260;2023-01-24T06:46:46;20.10;39.30
75648;DHT22;66269;51.466;7.260;2023-01-24T06:49:12;20.00;39.00
75648;DHT22;66269;51.466;7.260;2023-01-24T06:51:38;20.10;39.20
75648;DHT22;66269;51.466;7.260;2023-01-24T06:54:03;20.10;39.20
75648;DHT22;66269;51.466;7.260;2023-01-24T06:56:29;20.10;39.00
75648;DHT22;66269;51.466;7.260;2023-01-24T06:58:54;20.10;39.00
75648;DHT22;66269;51.466;7.260;2023-01-24T07:01:20;20.10;39.10
75648;DHT22;66269;51.466;7.260;2023-01-24T07:03:45;20.20;38.90
75648;DHT22;66269;51.466;7.260;2023-01-24T07:06:11;20.20;39.00
75648;DHT22;66269;51.466;7.260;2023-01-24T07:08:36;20.10;38.70
75648;DHT22;66269;51.466;7.260;2023-01-24T07:11:02;20.10;39.10
75648;DHT22;66269;51.466;7.260;2023-01-24T07:13:27;20.10;39.40
75648;DHT22;66269;51.466;7.260;2023-01-24T07:15:53;20.10;39.30
75648;DHT22;66269;51.466;7.260;2023-01-24T07:18:19;20.10;39.20
75648;DHT22;66269;51.466;7.260;2023-01-24T07:20:45;20.10;39.10
75648;DHT22;66269;51.466;7.260;2023-01-24T07:23:23;20.20;39.10
75648;DHT22;66269;51.466;7.260;2023-01-24T07:25:52;20.30;39.00
75648;DHT22;66269;51.466;7.260;2023-01-24T07:28:18;20.30;39.30
75648;DHT22;66269;51.466;7.260;2023-01-24T07:30:44;20.30;39.20
75648;DHT22;66269;51.466;7.260;2023-01-24T07:33:13;20.30;38.40
75648;DHT22;66269;51.466;7.260;2023-01-24T07:35:42;20.40;39.00
75648;DHT22;66269;51.466;7.260;2023-01-24T07:38:08;20.40;38.60
75648;DHT22;66269;51.466;7.260;2023-01-24T07:40:35;20.40;39.10
75648;DHT22;66269;51.466;7.260;2023-01-24T07:43:02;20.40;38.70
75648;DHT22;66269;51.466;7.260;2023-01-24T07:45:28;20.50;38.70
75648;DHT22;66269;51.466;7.260;2023-01-24T07:47:55;20.40;39.10
75648;DHT22;66269;51.466;7.260;2023-01-24T07:50:20;20.40;38.50
75648;DHT22;66269;51.466;7.260;2023-01-24T07:52:53;20.40;38.50
75648;DHT22;66269;51.466;7.260;2023-01-24T07:55:19;20.50;38.80
75648;DHT22;66269;51.466;7.260;2023-01-24T07:57:45;20.50;38.60
75648;DHT22;66269;51.466;7.260;2023-01-24T08:00:11;20.50;38.80
75648;DHT22;66269;51.466;7.260;2023-01-24T08:02:37;20.50;38.80
75648;DHT22;66269;51.466;7.260;2023-01-24T08:05:03;20.50;38.80
75648;DHT22;66269;51.466;7.260;2023-01-24T08:07:28;20.50;39.30
75648;DHT22;66269;51.466;7.260;2023-01-24T08:09:54;20.50;38.80
75648;DHT22;66269;51.466;7.260;2023-01-24T08:12:20;20.50;39.00
75648;DHT22;66269;51.466;7.260;2023-01-24T08:14:45;20.50;39.30
75648;DHT22;66269;51.466;7.260;2023-01-24T08:17:11;20.60;39.50
75648;DHT22;66269;51.466;7.260;2023-01-24T08:19:37;20.60;39.00
75648;DHT22;66269;51.466;7.260;2023-01-24T08:22:03;20.70;39.40
75648;DHT22;66269;51.466;7.260;2023-01-24T08:24:29;20.60;39.10
75648;DHT22;66269;51.466;7.260;2023-01-24T08:26:54;20.70;38.80
75648;DHT22;66269;51.466;7.260;2023-01-24T08:29:20;20.70;39.40
75648;DHT22;66269;51.466;7.260;2023-01-24T08:31:45;20.70;38.90
75648;DHT22;66269;51.466;7.260;2023-01-24T08:34:13;20.70;39.20
75648;DHT22;66269;51.466;7.260;2023-01-24T08:36:39;20.70;39.60
75648;DHT22;66269;51.466;7.260;2023-01-24T08:39:04;20.70;39.20
75648;DHT22;66269;51.466;7.260;2023-01-24T08:41:30;20.70;39.00
75648;DHT22;66269;51.466;7.260;2023-01-24T08:43:56;20.70;39.00
75648;DHT22;66269;51.466;7.260;2023-01-24T08:46:22;20.70;39.30
75648;DHT22;66269;51.466;7.260;2023-01-24T08:48:47;20.80;38.70
75648;DHT22;66269;51.466;7.260;2023-01-24T08:51:13;20.70;39.10
75648;DHT22;66269;51.466;7.260;2023-01-24T08:53:38;20.70;39.20
75648;DHT22;66269;51.466;7.260;2023-01-24T08:56:04;20.70;39.30
75648;DHT22;66269;51.466;7.260;2023-01-24T08:58:30;20.70;39.40
75648;DHT22;66269;51.466;7.260;2023-01-24T09:00:59;20.70;38.90
75648;DHT22;66269;51.466;7.260;2023-01-24T09:03:24;20.80;38.50
75648;DHT22;66269;51.466;7.260;2023-01-24T09:05:55;20.80;38.70
75648;DHT22;66269;51.466;7.260;2023-01-24T09:08:21;20.90;38.90
75648;DHT22;66269;51.466;7.260;2023-01-24T09:10:47;20.90;39.10
75648;DHT22;66269;51.466;7.260;2023-01-24T09:13:13;20.90;39.30
75648;DHT22;66269;51.466;7.260;2023-01-24T09:15:39;20.90;38.80
75648;DHT22;66269;51.466;7.260;2023-01-24T09:18:04;20.90;38.70
75648;DHT22;66269;51.466;7.260;2023-01-24T09:20:30;20.80;38.80
75648;DHT22;66269;51.466;7.260;2023-01-24T09:22:56;20.90;39.20
75648;DHT22;66269;51.466;7.260;2023-01-24T09:25:21;20.90;39.00
75648;DHT22;66269;51.466;7.260;2023-01-24T09:27:54;20.90;38.70
75648;DHT22;66269;51.466;7.260;2023-01-24T09:30:20;20.90;38.80
75648;DHT22;66269;51.466;7.260;2023-01-24T09:32:47;20.90;38.80
75648;DHT22;66269;51.466;7.260;2023-01-24T09:35:13;20.90;38.40
75648;DHT22;66269;51.466;7.260;2023-01-24T09:37:39;20.90;38.70
75648;DHT22;66269;51.466;7.260;2023-01-24T09:40:29;21.00;38.10
75648;DHT22;66269;51.466;7.260;2023-01-24T09:43:04;21.00;38.10
75648;DHT22;66269;51.466;7.260;2023-01-24T09:45:36;20.90;37.90
75648;DHT22;66269;51.466;7.260;2023-01-24T09:48:06;20.90;38.70
75648;DHT22;66269;51.466;7.260;2023-01-24T09:50:50;21.00;38.60
75648;DHT22;66269;51.466;7.260;2023-01-24T09:53:23;21.00;38.30
75648;DHT22;66269;51.466;7.260;2023-01-24T09:55:49;21.00;38.40
75648;DHT22;66269;51.466;7.260;2023-01-24T09:58:35;21.00;38.30
75648;DHT22;66269;51.466;7.260;2023-01-24T10:01:10;20.90;38.10
75648;DHT22;66269;51.466;7.260;2023-01-24T10:03:37;20.90;38.90
75648;DHT22;66269;51.466;7.260;2023-01-24T10:08:59;21.00;38.70
75648;DHT22;66269;51.466;7.260;2023-01-24T10:20:06;21.00;38.20
75648;DHT22;66269;51.466;7.260;2023-01-24T10:25:32;20.90;38.10
75648;DHT22;66269;51.466;7.260;2023-01-24T10:28:00;21.00;38.30
75648;DHT22;66269;51.466;7.260;2023-01-24T10:30:35;21.00;38.10
75648;DHT22;66269;51.466;7.260;2023-01-24T10:33:13;21.00;38.20
75648;DHT22;66269;51.466;7.260;2023-01-24T10:35:57;21.00;38.00
75648;DHT22;66269;51.466;7.260;2023-01-24T10:38:24;20.90;38.00
75648;DHT22;66269;51.466;7.260;2023-01-24T10:41:22;21.10;38.30
75648;DHT22;66269;51.466;7.260;2023-01-24T10:47:20;21.00;38.20
75648;DHT22;66269;51.466;7.260;2023-01-24T10:50:01;21.10;37.90
75648;DHT22;66269;51.466;7.260;2023-01-24T10:52:29;21.00;37.50
75648;DHT22;66269;51.466;7.260;2023-01-24T10:54:57;21.10;37.60
75648;DHT22;66269;51.466;7.260;2023-01-24T11:02:40;21.10;38.20
75648;DHT22;66269;51.466;7.260;2023-01-24T11:05:08;21.10;38.10
75648;DHT22;66269;51.466;7.260;2023-01-24T11:07:36;21.00;38.00
75648;DHT22;66269;51.466;7.260;2023-01-24T11:10:34;21.20;37.90
75648;DHT22;66269;51.466;7.260;2023-01-24T11:13:02;21.20;38.20
75648;DHT22;66269;51.466;7.260;2023-01-24T11:15:31;21.20;38.00
75648;DHT22;66269;51.466;7.260;2023-01-24T11:18:16;21.20;38.20
75648;DHT22;66269;51.466;7.260;2023-01-24T11:20:45;21.10;38.40
75648;DHT22;66269;51.466;7.260;2023-01-24T11:23:18;21.20;38.20
75648;DHT22;66269;51.466;7.260;2023-01-24T11:28:25;21.30;38.20
75648;DHT22;66269;51.466;7.260;2023-01-24T11:30:50;21.10;37.60
75648;DHT22;66269;51.466;7.260;2023-01-24T11:39:00;21.10;38.00
75648;DHT22;66269;51.466;7.260;2023-01-24T11:41:36;21.20;38.00
75648;DHT22;66269;51.466;7.260;2023-01-24T11:51:54;21.00;38.50
75648;DHT22;66269;51.466;7.260;2023-01-24T11:54:38;20.90;38.50
75648;DHT22;66269;51.466;7.260;2023-01-24T12:08:05;20.70;38.90
75648;DHT22;66269;51.466;7.260;2023-01-24T12:21:32;20.70;38.50
75648;DHT22;66269;51.466;7.260;2023-01-24T12:26:40;20.80;38.70
75648;DHT22;66269;51.466;7.260;2023-01-24T12:29:39;20.70;38.70
75648;DHT22;66269;51.466;7.260;2023-01-24T12:37:54;20.90;38.80
75648;DHT22;66269;51.466;7.260;2023-01-24T12:46:21;20.80;38.40
75648;DHT22;66269;51.466;7.260;2023-01-24T12:51:56;20.80;38.30
75648;DHT22;66269;51.466;7.260;2023-01-24T12:54:34;20.60;38.40
75648;DHT22;66269;51.466;7.260;2023-01-24T12:57:25;20.60;38.40
75648;DHT22;66269;51.466;7.260;2023-01-24T12:59:52;20.60;38.60
75648;DHT22;66269;51.466;7.260;2023-01-24T13:05:05;20.70;38.40
75648;DHT22;66269;51.466;7.260;2023-01-24T13:11:18;20.60;38.70
75648;DHT22;66269;51.466;7.260;2023-01-24T13:13:30;20.70;38.50
75648;DHT22;66269;51.466;7.260;2023-01-24T13:19:11;20.60;38.60
75648;DHT22;66269;51.466;7.260;2023-01-24T13:21:50;20.60;38.70
75648;DHT22;66269;51.466;7.260;2023-01-24T13:24:43;20.70;38.70
75648;DHT22;66269;51.466;7.260;2023-01-24T13:30:17;20.70;38.50
75648;DHT22;66269;51.466;7.260;2023-01-24T13:32:45;20.60;38.50
75648;DHT22;66269;51.466;7.260;2023-01-24T13:37:40;20.60;38.40
75648;DHT22;66269;51.466;7.260;2023-01-24T13:42:40;20.60;38.40
75648;DHT22;66269;51.466;7.260;2023-01-24T13:47:56;20.60;38.20
75648;DHT22;66269;51.466;7.260;2023-01-24T13:50:32;20.60;38.40
75648;DHT22;66269;51.466;7.260;2023-01-24T13:52:59;20.60;38.20
75648;DHT22;66269;51.466;7.260;2023-01-24T14:00:35;20.50;38.30
75648;DHT22;66269;51.466;7.260;2023-01-24T14:10:48;20.70;38.50
75648;DHT22;66269;51.466;7.260;2023-01-24T14:18:49;20.60;38.10
75648;DHT22;66269;51.466;7.260;2023-01-24T14:21:23;20.60;38.20
75648;DHT22;66269;51.466;7.260;2023-01-24T14:23:52;20.70;38.10
75648;DHT22;66269;51.466;7.260;2023-01-24T14:26:21;20.70;38.50
75648;DHT22;66269;51.466;7.260;2023-01-24T14:28:50;20.70;38.30
75648;DHT22;66269;51.466;7.260;2023-01-24T14:31:25;20.60;38.30
75648;DHT22;66269;51.466;7.260;2023-01-24T14:36:40;20.70;38.30
75648;DHT22;66269;51.466;7.260;2023-01-24T14:39:20;20.60;38.10
75648;DHT22;66269;51.466;7.260;2023-01-24T14:41:52;20.70;38.30
75648;DHT22;66269;51.466;7.260;2023-01-24T14:44:21;20.60;38.20
75648;DHT22;66269;51.466;7.260;2023-01-24T14:47:23;20.70;38.10
75648;DHT22;66269;51.466;7.260;2023-01-24T14:49:52;20.60;38.10
75648;DHT22;66269;51.466;7.260;2023-01-24T14:52:22;20.70;38.20
75648;DHT22;66269;51.466;7.260;2023-01-24T14:54:51;20.60;38.40
75648;DHT22;66269;51.466;7.260;2023-01-24T14:57:19;20.70;38.10
75648;DHT22;66269;51.466;7.260;2023-01-24T14:59:45;20.60;38.10
75648;DHT22;66269;51.466;7.260;2023-01-24T15:02:16;20.60;38.10
75648;DHT22;66269;51.466;7.260;2023-01-24T15:04:44;20.70;38.20
75648;DHT22;66269;51.466;7.260;2023-01-24T15:07:13;20.60;38.40
75648;DHT22;66269;51.466;7.260;2023-01-24T15:09:40;20.60;38.20
75648;DHT22;66269;51.466;7.260;2023-01-24T15:12:29;20.60;38.20
75648;DHT22;66269;51.466;7.260;2023-01-24T15:14:58;20.60;38.30
75648;DHT22;66269;51.466;7.260;2023-01-24T15:17:27;20.60;38.00
75648;DHT22;66269;51.466;7.260;2023-01-24T15:19:57;20.60;38.20
75648;DHT22;66269;51.466;7.260;2023-01-24T15:22:25;20.70;38.20
75648;DHT22;66269;51.466;7.260;2023-01-24T15:24:55;20.60;38.20
75648;DHT22;66269;51.466;7.260;2023-01-24T15:35:23;20.60;37.90
75648;DHT22;66269;51.466;7.260;2023-01-24T15:38:18;20.70;38.00
75648;DHT22;66269;51.466;7.260;2023-01-24T15:43:38;20.60;37.80
75648;DHT22;66269;51.466;7.260;2023-01-24T15:46:29;20.60;37.90
75648;DHT22;66269;51.466;7.260;2023-01-24T15:49:38;20.60;37.90
75648;DHT22;66269;51.466;7.260;2023-01-24T15:54:33;20.60;37.80
75648;DHT22;66269;51.466;7.260;2023-01-24T15:57:02;20.60;37.80
75648;DHT22;66269;51.466;7.260;2023-01-24T15:59:28;20.70;37.60
75648;DHT22;66269;51.466;7.260;2023-01-24T16:01:54;20.60;37.60
75648;DHT22;66269;51.466;7.260;2023-01-24T16:04:22;20.60;37.80
75648;DHT22;66269;51.466;7.260;2023-01-24T16:06:48;20.70;37.40
75648;DHT22;66269;51.466;7.260;2023-01-24T16:09:15;20.60;37.70
75648;DHT22;66269;51.466;7.260;2023-01-24T16:11:42;20.60;37.90
75648;DHT22;66269;51.466;7.260;2023-01-24T16:14:15;20.60;37.60
75648;DHT22;66269;51.466;7.260;2023-01-24T16:16:42;20.60;37.50
75648;DHT22;66269;51.466;7.260;2023-01-24T16:19:16;20.60;37.60
75648;DHT22;66269;51.466;7.260;2023-01-24T16:21:42;20.60;37.70
75648;DHT22;66269;51.466;7.260;2023-01-24T16:24:08;20.50;37.50
75648;DHT22;66269;51.466;7.260;2023-01-24T16:26:33;20.50;37.70
75648;DHT22;66269;51.466;7.260;2023-01-24T16:28:59;20.50;37.50
75648;DHT22;66269;51.466;7.260;2023-01-24T16:31:24;20.50;37.40
75648;DHT22;66269;51.466;7.260;2023-01-24T16:33:50;20.60;37.20
75648;DHT22;66269;51.466;7.260;2023-01-24T16:36:16;20.40;37.50
75648;DHT22;66269;51.466;7.260;2023-01-24T16:38:42;20.50;37.40
75648;DHT22;66269;51.466;7.260;2023-01-24T16:41:09;20.40;37.50
75648;DHT22;66269;51.466;7.260;2023-01-24T16:43:35;20.50;37.50
75648;DHT22;66269;51.466;7.260;2023-01-24T16:46:01;20.50;37.30
75648;DHT22;66269;51.466;7.260;2023-01-24T16:48:27;20.50;37.20
75648;DHT22;66269;51.466;7.260;2023-01-24T16:50:54;20.50;37.50
75648;DHT22;66269;51.466;7.260;2023-01-24T16:53:20;20.50;37.30
75648;DHT22;66269;51.466;7.260;2023-01-24T16:55:54;20.40;37.30
75648;DHT22;66269;51.466;7.260;2023-01-24T16:58:20;20.50;37.50
75648;DHT22;66269;51.466;7.260;2023-01-24T17:00:46;20.40;37.40
75648;DHT22;66269;51.466;7.260;2023-01-24T17:03:11;20.40;37.20
75648;DHT22;66269;51.466;7.260;2023-01-24T17:05:38;20.50;37.30
75648;DHT22;66269;51.466;7.260;2023-01-24T17:08:04;20.40;37.40
75648;DHT22;66269;51.466;7.260;2023-01-24T17:10:30;20.60;37.60
75648;DHT22;66269;51.466;7.260;2023-01-24T17:12:55;20.70;37.70
75648;DHT22;66269;51.466;7.260;2023-01-24T17:15:21;20.80;37.50
75648;DHT22;66269;51.466;7.260;2023-01-24T17:17:46;20.90;37.10
75648;DHT22;66269;51.466;7.260;2023-01-24T17:20:12;20.90;36.80
75648;DHT22;66269;51.466;7.260;2023-01-24T17:22:38;21.00;37.00
75648;DHT22;66269;51.466;7.260;2023-01-24T17:25:04;21.00;37.10
75648;DHT22;66269;51.466;7.260;2023-01-24T17:27:30;21.10;36.60
75648;DHT22;66269;51.466;7.260;2023-01-24T17:29:56;21.10;36.90
75648;DHT22;66269;51.466;7.260;2023-01-24T17:32:22;21.10;36.60
75648;DHT22;66269;51.466;7.260;2023-01-24T17:34:47;21.10;36.90
75648;DHT22;66269;51.466;7.260;2023-01-24T17:37:13;21.10;37.00
75648;DHT22;66269;51.466;7.260;2023-01-24T17:39:39;21.20;37.00
75648;DHT22;66269;51.466;7.260;2023-01-24T17:42:04;21.20;36.90
75648;DHT22;66269;51.466;7.260;2023-01-24T17:44:30;21.40;37.00
75648;DHT22;66269;51.466;7.260;2023-01-24T17:46:56;21.20;37.30
75648;DHT22;66269;51.466;7.260;2023-01-24T17:49:22;21.20;37.30
75648;DHT22;66269;51.466;7.260;2023-01-24T17:51:48;21.20;36.90
75648;DHT22;66269;51.466;7.260;2023-01-24T17:54:14;21.20;37.30
75648;DHT22;66269;51.466;7.260;2023-01-24T17:56:41;21.20;37.30
75648;DHT22;66269;51.466;7.260;2023-01-24T17:59:07;21.40;37.30
75648;DHT22;66269;51.466;7.260;2023-01-24T18:01:32;21.30;37.20
75648;DHT22;66269;51.466;7.260;2023-01-24T18:03:58;21.30;36.90
75648;DHT22;66269;51.466;7.260;2023-01-24T18:06:23;21.20;37.00
75648;DHT22;66269;51.466;7.260;2023-01-24T18:08:49;21.30;37.00
75648;DHT22;66269;51.466;7.260;2023-01-24T18:11:17;21.20;37.10
75648;DHT22;66269;51.466;7.260;2023-01-24T18:13:43;21.20;37.40